Romayor, Texas
Current Conditions -  °F | °C
As of 9:15 PM on Saturday 20 Dec 2014 (Local Time) from K6R3 Reporting Station
Haze Haze  
Wind Chill: 46°   Ceiling: Unl
Heat Index: 46°   Visibility: 3mi
Dew Point: 46°   Wind: 0mph
Humidity: 99%   Direction: NA
Pressure: 30.2"   Gusts: NA
Location:  30.45°N, 94.84°W
Report Text: K6R3 210315Z AUTO 00000KT 3SM BR CLR 08/08 A3020 RMK AO2 T00770075
Loading
Personal Weather Stations






























Interactive Weather Map New forecast layout! Learn more

10-Day Weather Forecast

Advertisements
Track Severe Weather on mobile